Lions Gate Bridge — H9LV — position and weather

sailwx.info

Track history (hours):
 
Tides and Currents Weather Stations Pressure Air Temp Water Temp Dewpoint Dewpoint Depression Visibility Wind Speed Wind Dir Waves Ship Positions

Lions Gate Bridge

Last reported at 2014-Sep-12 18:33 UTC. Time now 2014-Sep-22 06:18 UTC.
Position N 48°40' W 126°45'.
Warning: this ship's position is 9 days out of date.

Length 284.7 m; beam 40 m.

Type: Cargo ship. MMSI: 351086000.

Date/timePositionNaut miles runAvg speedWind from/ knotsBaromVisibWave heightAir tempDewpointWater temp
2014-Sep-12 18:33N 48°40' W 126°45'1818.0
2014-Sep-12 17:32N 48°37' W 126°18'1718.0
2014-Sep-12 16:33N 48°35' W 125°52'1818.3
2014-Sep-12 15:33N 48°32' W 125°24'1817.9
2014-Sep-12 14:33N 48°31' W 124°57'1818.1
2014-Sep-12 13:33N 48°27' W 124°31'1817.8
2014-Sep-12 12:33N 48°20' W 124°06'1717.1
2014-Sep-12 11:33N 48°16' W 123°41'1313.5
2014-Sep-12 10:34N 48°23' W 123°23'1212.1
2014-Sep-12 09:34N 48°33' W 123°13'1817.6
2014-Sep-12 08:33N 48°49' W 123°02'2121.4
2014-Sep-12 07:34N 49°05' W 123°24'1717.3
2014-Sep-12 06:33N 49°19' W 123°09'3 3.0
2014-Sep-12 05:33N 49°17' W 123°05'0 0.0
2014-Sep-12 04:33N 49°17' W 123°05'0 0.0
2014-Sep-12 03:33N 49°17' W 123°05'0 0.0
2014-Sep-12 02:33N 49°17' W 123°05'0 0.0
2014-Sep-12 01:33N 49°17' W 123°05'0 0.0
2014-Sep-12 00:33N 49°17' W 123°05'0 0.0
2014-Sep-11 23:33N 49°17' W 123°05'0 0.0
2014-Sep-11 22:33N 49°17' W 123°05'0 0.0
2014-Sep-11 21:33N 49°17' W 123°05'0 0.0
2014-Sep-11 20:33N 49°17' W 123°05'0 0.0
2014-Sep-11 19:33N 49°17' W 123°05'0 0.0
2014-Sep-11 18:33N 49°17' W 123°05'0 0.0
2014-Sep-11 17:33N 49°17' W 123°05'0 0.0
2014-Sep-11 16:33N 49°17' W 123°05'0 0.0
2014-Sep-11 15:33N 49°17' W 123°05'0 0.0
2014-Sep-11 14:33N 49°17' W 123°05'0 0.0
2014-Sep-11 13:33N 49°17' W 123°05'0 0.0
2014-Sep-11 12:33N 49°17' W 123°05'0 0.0
2014-Sep-11 11:33N 49°17' W 123°05'0 0.0
2014-Sep-11 10:33N 49°17' W 123°05'0 0.0
2014-Sep-11 09:33N 49°17' W 123°05'0 0.0
2014-Sep-11 08:33N 49°17' W 123°05'0 0.0
2014-Sep-11 07:33N 49°17' W 123°05'0 0.0
2014-Sep-11 06:33N 49°17' W 123°05'0 0.0
2014-Sep-11 05:33N 49°17' W 123°05'0 0.0
2014-Sep-11 04:33N 49°17' W 123°05'0 0.0
2014-Sep-11 03:33N 49°17' W 123°05'0 0.0
2014-Sep-11 02:33N 49°17' W 123°05'0 0.0
2014-Sep-11 01:33N 49°17' W 123°05'2 1.6
2014-Sep-11 00:34N 49°18' W 123°07'1211.6
2014-Sep-10 23:34N 49°10' W 123°19'2020.2
2014-Sep-10 22:33N 48°53' W 123°04'1716.9
2014-Sep-10 21:33N 48°37' W 123°14'1616.0
2014-Sep-10 20:33N 48°22' W 123°21'1212.0
2014-Sep-10 19:33N 48°10' W 123°24'1716.7
2014-Sep-10 18:33N 48°12' W 122°59'2121.0
2014-Sep-10 17:34N 47°59' W 122°35'1919.4
2014-Sep-10 16:33N 47°40' W 122°27'1616.1
2014-Sep-10 15:34N 47°24' W 122°22'8 7.9
2014-Sep-10 14:33N 47°17' W 122°25'0 0.0
2014-Sep-10 11:15N 47°16' W 122°25'0 0.0
2014-Sep-10 10:07N 47°16' W 122°25'0 0.0
2014-Sep-10 04:10N 47°16' W 122°25'0 0.0
2014-Sep-10 03:28N 47°16' W 122°25'0 0.0
2014-Sep-10 02:34N 47°16' W 122°25'0 0.0
2014-Sep-10 00:04N 47°16' W 122°25'0 0.0
2014-Sep-09 20:34N 47°16' W 122°25'0 0.0
2014-Sep-09 18:28N 47°16' W 122°25'0 0.0
2014-Sep-09 17:34N 47°16' W 122°25'0 0.0
2014-Sep-09 10:25N 47°16' W 122°25'0 0.0
2014-Sep-09 09:28N 47°16' W 122°25'0 0.0
2014-Sep-09 08:25N 47°16' W 122°25'0 0.0
2014-Sep-09 07:31N 47°16' W 122°25'0 0.0
2014-Sep-09 06:31N 47°16' W 122°25'0 0.0
2014-Sep-09 05:31N 47°16' W 122°25'0 0.0
2014-Sep-09 03:13N 47°16' W 122°25'0 0.0
2014-Sep-09 02:31N 47°16' W 122°25'0 0.0
2014-Sep-09 01:31N 47°16' W 122°25'0 0.0
2014-Sep-08 23:07N 47°16' W 122°25'0 0.0
2014-Sep-08 12:33N 47°16' W 122°25'4 3.9
2014-Sep-08 11:34N 47°20' W 122°28'1312.6
2014-Sep-08 10:33N 47°32' W 122°27'1615.8
2014-Sep-08 09:33N 47°48' W 122°28'2120.8
2014-Sep-08 08:33N 48°07' W 122°41'2121.4
2014-Sep-08 07:33N 48°11' W 123°12'1110.6
2014-Sep-08 06:33N 48°12' W 123°28'9 8.7
2014-Sep-08 05:33N 48°13' W 123°41'1313.0
2014-Sep-08 04:33N 48°15' W 124°01'1616.7
2014-Sep-08 03:33N 48°22' W 124°23'1716.6
2014-Sep-08 02:33N 48°29' W 124°46'1717.4
2014-Sep-08 01:33N 48°29' W 125°12'1818.2
2014-Sep-08 00:33N 48°28' W 125°40'1918.7
2014-Sep-07 23:33N 48°33' W 126°07'  
Track history (hours):
 
Tides and Currents Weather Stations Pressure Air Temp Water Temp Dewpoint Dewpoint Depression Visibility Wind Speed Wind Dir Waves Ship Positions

Lions Gate Bridge

Last reported at 2014-Sep-12 18:33 UTC. Time now 2014-Sep-22 06:18 UTC.
Position N 48°40' W 126°45'.
Warning: this ship's position is 9 days out of date.

Length 284.7 m; beam 40 m.

Type: Cargo ship. MMSI: 351086000.

Date/timePositionNaut miles runAvg speedWind from/ knotsBaromVisibWave heightAir tempDewpointWater temp
2014-Sep-12 18:33N 48°40' W 126°45'1818.0
2014-Sep-12 17:32N 48°37' W 126°18'1718.0
2014-Sep-12 16:33N 48°35' W 125°52'1818.3
2014-Sep-12 15:33N 48°32' W 125°24'1817.9
2014-Sep-12 14:33N 48°31' W 124°57'1818.1
2014-Sep-12 13:33N 48°27' W 124°31'1817.8
2014-Sep-12 12:33N 48°20' W 124°06'1717.1
2014-Sep-12 11:33N 48°16' W 123°41'1313.5
2014-Sep-12 10:34N 48°23' W 123°23'1212.1
2014-Sep-12 09:34N 48°33' W 123°13'1817.6
2014-Sep-12 08:33N 48°49' W 123°02'2121.4
2014-Sep-12 07:34N 49°05' W 123°24'1717.3
2014-Sep-12 06:33N 49°19' W 123°09'3 3.0
2014-Sep-12 05:33N 49°17' W 123°05'0 0.0
2014-Sep-12 04:33N 49°17' W 123°05'0 0.0
2014-Sep-12 03:33N 49°17' W 123°05'0 0.0
2014-Sep-12 02:33N 49°17' W 123°05'0 0.0
2014-Sep-12 01:33N 49°17' W 123°05'0 0.0
2014-Sep-12 00:33N 49°17' W 123°05'0 0.0
2014-Sep-11 23:33N 49°17' W 123°05'0 0.0
2014-Sep-11 22:33N 49°17' W 123°05'0 0.0
2014-Sep-11 21:33N 49°17' W 123°05'0 0.0
2014-Sep-11 20:33N 49°17' W 123°05'0 0.0
2014-Sep-11 19:33N 49°17' W 123°05'0 0.0
2014-Sep-11 18:33N 49°17' W 123°05'0 0.0
2014-Sep-11 17:33N 49°17' W 123°05'0 0.0
2014-Sep-11 16:33N 49°17' W 123°05'0 0.0
2014-Sep-11 15:33N 49°17' W 123°05'0 0.0
2014-Sep-11 14:33N 49°17' W 123°05'0 0.0
2014-Sep-11 13:33N 49°17' W 123°05'0 0.0
2014-Sep-11 12:33N 49°17' W 123°05'0 0.0
2014-Sep-11 11:33N 49°17' W 123°05'0 0.0
2014-Sep-11 10:33N 49°17' W 123°05'0 0.0
2014-Sep-11 09:33N 49°17' W 123°05'0 0.0
2014-Sep-11 08:33N 49°17' W 123°05'0 0.0
2014-Sep-11 07:33N 49°17' W 123°05'0 0.0
2014-Sep-11 06:33N 49°17' W 123°05'0 0.0
2014-Sep-11 05:33N 49°17' W 123°05'0 0.0
2014-Sep-11 04:33N 49°17' W 123°05'0 0.0
2014-Sep-11 03:33N 49°17' W 123°05'0 0.0
2014-Sep-11 02:33N 49°17' W 123°05'0 0.0
2014-Sep-11 01:33N 49°17' W 123°05'2 1.6
2014-Sep-11 00:34N 49°18' W 123°07'1211.6
2014-Sep-10 23:34N 49°10' W 123°19'2020.2
2014-Sep-10 22:33N 48°53' W 123°04'1716.9
2014-Sep-10 21:33N 48°37' W 123°14'1616.0
2014-Sep-10 20:33N 48°22' W 123°21'1212.0
2014-Sep-10 19:33N 48°10' W 123°24'1716.7
2014-Sep-10 18:33N 48°12' W 122°59'2121.0
2014-Sep-10 17:34N 47°59' W 122°35'1919.4
2014-Sep-10 16:33N 47°40' W 122°27'1616.1
2014-Sep-10 15:34N 47°24' W 122°22'8 7.9
2014-Sep-10 14:33N 47°17' W 122°25'0 0.0
2014-Sep-10 11:15N 47°16' W 122°25'0 0.0
2014-Sep-10 10:07N 47°16' W 122°25'0 0.0
2014-Sep-10 04:10N 47°16' W 122°25'0 0.0
2014-Sep-10 03:28N 47°16' W 122°25'0 0.0
2014-Sep-10 02:34N 47°16' W 122°25'0 0.0
2014-Sep-10 00:04N 47°16' W 122°25'0 0.0
2014-Sep-09 20:34N 47°16' W 122°25'0 0.0
2014-Sep-09 18:28N 47°16' W 122°25'0 0.0
2014-Sep-09 17:34N 47°16' W 122°25'0 0.0
2014-Sep-09 10:25N 47°16' W 122°25'0 0.0
2014-Sep-09 09:28N 47°16' W 122°25'0 0.0
2014-Sep-09 08:25N 47°16' W 122°25'0 0.0
2014-Sep-09 07:31N 47°16' W 122°25'0 0.0
2014-Sep-09 06:31N 47°16' W 122°25'0 0.0
2014-Sep-09 05:31N 47°16' W 122°25'0 0.0
2014-Sep-09 03:13N 47°16' W 122°25'0 0.0
2014-Sep-09 02:31N 47°16' W 122°25'0 0.0
2014-Sep-09 01:31N 47°16' W 122°25'0 0.0
2014-Sep-08 23:07N 47°16' W 122°25'0 0.0
2014-Sep-08 12:33N 47°16' W 122°25'4 3.9
2014-Sep-08 11:34N 47°20' W 122°28'1312.6
2014-Sep-08 10:33N 47°32' W 122°27'1615.8
2014-Sep-08 09:33N 47°48' W 122°28'2120.8
2014-Sep-08 08:33N 48°07' W 122°41'2121.4
2014-Sep-08 07:33N 48°11' W 123°12'1110.6
2014-Sep-08 06:33N 48°12' W 123°28'9 8.7
2014-Sep-08 05:33N 48°13' W 123°41'1313.0
2014-Sep-08 04:33N 48°15' W 124°01'1616.7
2014-Sep-08 03:33N 48°22' W 124°23'1716.6
2014-Sep-08 02:33N 48°29' W 124°46'1717.4
2014-Sep-08 01:33N 48°29' W 125°12'1818.2
2014-Sep-08 00:33N 48°28' W 125°40'1918.7
2014-Sep-07 23:33N 48°33' W 126°07'  

Dump ship's entire track history